Mehriz, Iran
Current Conditions -  °F | °C
As of 10:00 PM on Saturday 25 Oct 2014 (Local Time) from OIYY Reporting Station
Clear Clear  
Wind Chill: 64°   Ceiling: Unl
Heat Index: 64°   Visibility: 6mi
Dew Point: 23°   Wind: 2mph
Humidity: 21%   Direction: 160°SSE
Pressure: 30.03"   Gusts: NA
Location:  31.58°N, 54.45°E
Report Text: OIYY 251800Z 16002KT CAVOK 18/M05 Q1017
Loading
Personal Weather Stations






























Interactive Weather Map
Tropical Storm Tracking
New forecast layout! Learn more

10-Day Weather Forecast

Advertisements
Track Severe Weather on mobile